Time;durP1;ratioP1;P1;durP2;ratioP2;P2;SDS_P1;SDS_P2;PMS_P1;PMS_P2;Temp;Humidity;BMP_temperature;BMP_pressure;BME280_temperature;BME280_humidity;BME280_pressure;Samples;Min_cycle;Max_cycle;Signal;HPM_P1;HPM_P2
2021/07/21 00:00:27;;;;;;;1.95;1.80;;;14.20;99.90;;;;;;4865684;29;20407;-76
2021/07/21 00:02:53;;;;;;;1.35;1.27;;;14.20;99.90;;;;;;4868935;29;20404;-73
2021/07/21 00:05:19;;;;;;;1.88;1.63;;;14.10;99.90;;;;;;4865003;29;20415;-76
2021/07/21 00:07:45;;;;;;;1.50;1.40;;;14.10;99.90;;;;;;4859509;29;20501;-72
2021/07/21 00:10:12;;;;;;;1.90;1.80;;;14.20;99.90;;;;;;4863645;29;20437;-73
2021/07/21 00:15:24;;;;;;;1.50;1.40;;;14.10;99.90;;;;;;4861158;29;20966;-85
2021/07/21 00:17:58;;;;;;;1.70;1.60;;;14.20;99.90;;;;;;4853183;29;20484;-77
2021/07/21 00:20:24;;;;;;;1.58;1.48;;;14.20;99.90;;;;;;4848761;29;20415;-74
2021/07/21 00:22:50;;;;;;;1.98;1.83;;;14.20;99.90;;;;;;4845808;29;20411;-74
2021/07/21 00:25:15;;;;;;;2.60;1.50;;;14.30;99.90;;;;;;4846209;29;20931;-74
2021/07/21 00:27:44;;;;;;;1.85;1.75;;;14.20;99.90;;;;;;4841432;29;20489;-76
2021/07/21 00:30:12;;;;;;;1.95;1.80;;;14.30;99.90;;;;;;4871213;29;20542;-76
2021/07/21 00:32:38;;;;;;;1.48;1.38;;;14.30;99.90;;;;;;4872754;29;20787;-75
2021/07/21 00:35:08;;;;;;;2.03;1.92;;;14.30;99.90;;;;;;4861303;29;20478;-75
2021/07/21 00:37:35;;;;;;;1.50;1.40;;;14.40;99.90;;;;;;4864316;29;20422;-76
2021/07/21 00:40:01;;;;;;;1.60;1.50;;;14.40;99.90;;;;;;4865744;29;20419;-73
2021/07/21 00:42:28;;;;;;;1.60;1.50;;;14.40;99.90;;;;;;4848899;29;20396;-75
2021/07/21 00:44:54;;;;;;;1.52;1.42;;;14.40;99.90;;;;;;4851251;29;20478;-79
2021/07/21 00:47:21;;;;;;;1.80;1.70;;;14.40;99.90;;;;;;4837200;29;20395;-76
2021/07/21 00:49:47;;;;;;;1.60;1.50;;;14.30;99.90;;;;;;4851721;29;20406;-77
2021/07/21 00:52:15;;;;;;;1.52;1.42;;;14.30;99.90;;;;;;4847373;29;20470;-78
2021/07/21 00:54:41;;;;;;;2.42;1.50;;;14.30;99.90;;;;;;4857682;29;20446;-75
2021/07/21 00:57:06;;;;;;;1.60;1.50;;;14.30;99.90;;;;;;4885133;29;21140;-76
2021/07/21 00:59:33;;;;;;;2.75;1.98;;;14.30;99.90;;;;;;4851333;29;20398;-74
2021/07/21 01:02:00;;;;;;;1.60;1.50;;;14.20;99.90;;;;;;4853153;29;20408;-73
2021/07/21 01:04:29;;;;;;;1.50;1.40;;;14.20;99.90;;;;;;4837851;29;20415;-73
2021/07/21 01:06:58;;;;;;;1.27;1.27;;;14.20;99.90;;;;;;4844321;29;20421;-74
2021/07/21 01:09:23;;;;;;;1.80;1.70;;;14.20;99.90;;;;;;4854545;29;20414;-75
2021/07/21 01:12:03;;;;;;;2.15;1.90;;;14.30;99.90;;;;;;4870580;29;20407;-75
2021/07/21 01:15:00;;;;;;;1.65;1.55;;;14.20;99.90;;;;;;4867283;29;20427;-78
2021/07/21 01:17:41;;;;;;;1.65;1.42;;;14.30;99.90;;;;;;4875164;29;20491;-77
2021/07/21 01:20:32;;;;;;;1.52;1.42;;;14.30;99.90;;;;;;4852074;29;20496;-75
2021/07/21 01:23:13;;;;;;;2.00;1.80;;;14.30;99.90;;;;;;4851466;29;20505;-74
2021/07/21 01:25:44;;;;;;;1.55;1.45;;;14.40;99.90;;;;;;4869843;29;20475;-74
2021/07/21 01:28:14;;;;;;;2.10;1.63;;;14.40;99.90;;;;;;4872306;29;20411;-72
2021/07/21 01:30:47;;;;;;;1.63;1.52;;;14.50;99.90;;;;;;4848463;29;20409;-78
2021/07/21 01:33:13;;;;;;;1.60;1.50;;;14.50;99.90;;;;;;4847970;29;20415;-76
2021/07/21 01:35:44;;;;;;;1.70;1.60;;;14.40;99.90;;;;;;4867513;29;20463;-80
2021/07/21 01:38:12;;;;;;;1.73;1.60;;;14.50;99.90;;;;;;4871978;29;20903;-74
2021/07/21 01:40:42;;;;;;;1.60;1.50;;;14.60;99.90;;;;;;4847286;29;20403;-74
2021/07/21 01:43:10;;;;;;;1.45;1.38;;;14.60;99.90;;;;;;4849792;29;20776;-76
2021/07/21 01:45:36;;;;;;;1.90;1.58;;;14.60;99.90;;;;;;4846297;29;20469;-76
2021/07/21 01:48:03;;;;;;;1.53;1.43;;;14.60;99.90;;;;;;4861804;29;20447;-75
2021/07/21 01:50:30;;;;;;;1.50;1.40;;;14.60;99.90;;;;;;4840190;29;20411;-75
2021/07/21 01:52:58;;;;;;;1.55;1.45;;;14.60;99.90;;;;;;4838375;29;20420;-76
2021/07/21 01:55:24;;;;;;;1.70;1.60;;;14.50;99.90;;;;;;4858305;29;20419;-72
2021/07/21 01:57:51;;;;;;;1.38;1.30;;;14.50;99.90;;;;;;4865396;29;20406;-79
2021/07/21 02:00:28;;;;;;;1.40;1.30;;;14.40;99.90;;;;;;4845448;29;20471;-74
2021/07/21 02:02:55;;;;;;;2.05;1.50;;;14.50;99.90;;;;;;4829974;29;20403;-77
2021/07/21 02:05:40;;;;;;;1.33;1.23;;;14.50;99.90;;;;;;4859647;29;20399;-77
2021/07/21 02:08:06;;;;;;;1.48;1.38;;;14.50;99.90;;;;;;4850890;29;20418;-79
2021/07/21 02:10:32;;;;;;;1.63;1.50;;;14.50;99.90;;;;;;4834021;29;20429;-73
2021/07/21 02:13:17;;;;;;;1.67;1.58;;;14.50;99.90;;;;;;4834484;29;20412;-83
2021/07/21 02:16:11;;;;;;;1.55;1.45;;;14.40;99.90;;;;;;4800964;29;20426;-76
2021/07/21 02:18:39;;;;;;;1.70;1.60;;;14.40;99.90;;;;;;4846925;29;20440;-79
2021/07/21 02:21:05;;;;;;;1.50;1.40;;;14.40;99.90;;;;;;4870857;29;20406;-77
2021/07/21 02:23:33;;;;;;;1.98;1.65;;;14.40;99.90;;;;;;4855500;29;20409;-75
2021/07/21 02:26:18;;;;;;;1.90;1.80;;;14.40;99.90;;;;;;4878390;29;20461;-78
2021/07/21 02:28:46;;;;;;;2.17;1.70;;;14.40;99.90;;;;;;4869767;29;20494;-75
2021/07/21 02:31:30;;;;;;;1.85;1.48;;;14.30;99.90;;;;;;4858077;29;20424;-74
2021/07/21 02:34:04;;;;;;;1.23;1.23;;;14.30;99.90;;;;;;4852138;29;20410;-78
2021/07/21 02:36:31;;;;;;;2.10;1.70;;;14.30;99.90;;;;;;4855598;29;20413;-75
2021/07/21 02:38:57;;;;;;;1.25;1.25;;;14.40;99.90;;;;;;4837811;29;20412;-73
2021/07/21 02:41:23;;;;;;;1.42;1.33;;;14.30;99.90;;;;;;4854268;29;20425;-79
2021/07/21 02:43:50;;;;;;;1.70;1.60;;;14.30;99.90;;;;;;4868286;29;20460;-80
2021/07/21 02:46:16;;;;;;;1.63;1.52;;;14.30;99.90;;;;;;4848522;29;20418;-73
2021/07/21 02:48:44;;;;;;;1.83;1.73;;;14.30;99.90;;;;;;4867209;29;20389;-79
2021/07/21 02:51:45;;;;;;;2.47;1.90;;;14.20;99.90;;;;;;4850824;29;20415;-80
2021/07/21 02:54:36;;;;;;;3.35;2.20;;;14.20;99.90;;;;;;4862295;29;20444;-76
2021/07/21 02:57:12;;;;;;;2.28;2.08;;;14.10;99.90;;;;;;4855753;29;20573;-76
2021/07/21 02:59:42;;;;;;;1.40;1.30;;;14.10;99.90;;;;;;4873844;29;20418;-77
2021/07/21 03:02:08;;;;;;;1.70;1.60;;;14.00;99.90;;;;;;4869918;29;20411;-73
2021/07/21 03:04:38;;;;;;;1.60;1.50;;;14.00;99.90;;;;;;4861256;29;20459;-73
2021/07/21 03:07:16;;;;;;;1.88;1.77;;;14.00;99.90;;;;;;4849055;29;20464;-75
2021/07/21 03:09:42;;;;;;;1.90;1.80;;;14.00;99.90;;;;;;4847719;29;20426;-75
2021/07/21 03:12:10;;;;;;;1.77;1.67;;;14.00;99.90;;;;;;4858242;29;20489;-80
2021/07/21 03:14:56;;;;;;;1.70;1.60;;;14.00;99.90;;;;;;4873021;29;20417;-79
2021/07/21 03:17:23;;;;;;;1.77;1.67;;;13.90;99.90;;;;;;4839497;29;20854;-73
2021/07/21 03:19:52;;;;;;;1.77;1.67;;;14.10;99.90;;;;;;4848654;29;20426;-79
2021/07/21 03:22:23;;;;;;;1.75;1.65;;;14.10;99.90;;;;;;4850097;29;20954;-75
2021/07/21 03:24:54;;;;;;;2.30;2.20;;;14.10;99.90;;;;;;4841137;29;20418;-76
2021/07/21 03:27:26;;;;;;;1.70;1.60;;;14.10;99.90;;;;;;4869528;29;20411;-74
2021/07/21 03:30:28;;;;;;;2.27;2.07;;;14.20;99.90;;;;;;4825822;29;21252;-73
2021/07/21 03:32:59;;;;;;;1.80;1.70;;;14.20;99.90;;;;;;4845434;29;20395;-73
2021/07/21 03:35:27;;;;;;;2.85;2.28;;;14.30;99.90;;;;;;4879560;29;20411;-75
2021/07/21 03:37:55;;;;;;;2.03;1.90;;;14.30;99.90;;;;;;4844526;29;20407;-73
2021/07/21 03:40:25;;;;;;;2.00;1.90;;;14.30;99.90;;;;;;4861014;29;20443;-77
2021/07/21 03:43:18;;;;;;;2.30;2.10;;;14.50;99.90;;;;;;4875448;29;20415;-80
2021/07/21 03:46:03;;;;;;;1.88;1.77;;;14.50;99.90;;;;;;4872464;29;20406;-74
2021/07/21 03:48:31;;;;;;;2.30;2.10;;;14.60;99.90;;;;;;4875998;29;20987;-74
2021/07/21 03:51:09;;;;;;;4.00;2.03;;;14.60;99.90;;;;;;4859290;29;20425;-76
2021/07/21 03:53:54;;;;;;;2.17;1.90;;;14.70;99.90;;;;;;4879118;29;20409;-73
2021/07/21 03:56:23;;;;;;;3.22;2.25;;;14.70;99.90;;;;;;4842375;29;20435;-73
2021/07/21 03:58:57;;;;;;;1.60;1.50;;;14.60;99.90;;;;;;4812295;29;20409;-73
2021/07/21 04:01:24;;;;;;;1.95;1.83;;;14.70;99.90;;;;;;4859854;29;20962;-73
2021/07/21 04:03:54;;;;;;;1.88;1.77;;;14.70;99.90;;;;;;4846165;29;20403;-79
2021/07/21 04:06:22;;;;;;;3.45;1.90;;;14.70;99.90;;;;;;4847052;29;20563;-77
2021/07/21 04:08:57;;;;;;;2.20;2.00;;;14.60;99.90;;;;;;4846870;29;20935;-80
2021/07/21 04:11:28;;;;;;;2.03;1.88;;;14.70;99.90;;;;;;4873674;29;20504;-77
2021/07/21 04:13:55;;;;;;;2.00;1.90;;;14.60;99.90;;;;;;4863631;29;20418;-74
2021/07/21 04:16:50;;;;;;;2.03;1.85;;;14.70;99.90;;;;;;4845479;29;20430;-73
2021/07/21 04:19:17;;;;;;;1.90;1.80;;;14.70;99.90;;;;;;4853618;29;20420;-75
2021/07/21 04:21:48;;;;;;;3.80;3.22;;;14.70;99.90;;;;;;4865254;29;20541;-73
2021/07/21 04:24:14;;;;;;;2.57;2.37;;;14.70;99.90;;;;;;4862115;29;20869;-73
2021/07/21 04:26:41;;;;;;;2.55;2.28;;;14.80;99.90;;;;;;4865307;29;20648;-72
2021/07/21 04:29:19;;;;;;;2.22;1.92;;;14.90;99.90;;;;;;4847615;29;20423;-72
2021/07/21 04:31:47;;;;;;;2.05;1.95;;;14.90;99.90;;;;;;4839579;29;20420;-74
2021/07/21 04:34:13;;;;;;;2.63;2.42;;;15.00;99.90;;;;;;4847278;29;20790;-75
2021/07/21 04:36:39;;;;;;;2.10;2.00;;;15.10;99.90;;;;;;4856005;29;20800;-75
2021/07/21 04:39:07;;;;;;;2.10;1.98;;;15.10;99.90;;;;;;4867024;29;20415;-73
2021/07/21 04:41:55;;;;;;;2.00;1.90;;;15.10;99.90;;;;;;4862485;29;20474;-82
2021/07/21 04:44:27;;;;;;;2.35;2.15;;;15.20;99.90;;;;;;4874429;29;20414;-74
2021/07/21 04:46:54;;;;;;;2.42;2.22;;;15.20;99.90;;;;;;4845345;29;20411;-78
2021/07/21 04:49:22;;;;;;;3.05;2.40;;;15.20;99.90;;;;;;4849490;29;20419;-74
2021/07/21 04:51:48;;;;;;;2.15;2.03;;;15.20;99.90;;;;;;4863062;29;20492;-75
2021/07/21 04:54:28;;;;;;;2.50;2.30;;;15.30;99.90;;;;;;4857439;29;20916;-75
2021/07/21 04:56:58;;;;;;;2.65;2.45;;;15.40;99.90;;;;;;4857098;29;20470;-73
2021/07/21 04:59:29;;;;;;;2.30;2.10;;;15.40;99.90;;;;;;4855451;29;20439;-74
2021/07/21 05:01:54;;;;;;;2.63;2.42;;;15.50;99.90;;;;;;4856418;29;20419;-75
2021/07/21 05:04:21;;;;;;;2.40;2.20;;;15.50;99.90;;;;;;4844871;29;20417;-80
2021/07/21 05:07:14;;;;;;;2.38;2.20;;;15.60;99.90;;;;;;4843155;29;21019;-75
2021/07/21 05:09:49;;;;;;;3.30;2.90;;;15.70;99.90;;;;;;4856762;29;20409;-82
2021/07/21 05:12:17;;;;;;;3.00;2.70;;;15.80;99.90;;;;;;4844853;29;20411;-76
2021/07/21 05:14:49;;;;;;;2.95;2.65;;;15.80;99.90;;;;;;4834508;29;20414;-73
2021/07/21 05:17:35;;;;;;;2.63;2.42;;;15.80;99.90;;;;;;4872364;29;20420;-73
2021/07/21 05:20:06;;;;;;;2.42;2.22;;;15.80;99.90;;;;;;4862026;29;21015;-72
2021/07/21 05:22:35;;;;;;;2.55;2.35;;;15.90;99.90;;;;;;4853250;29;20415;-74
2021/07/21 05:25:02;;;;;;;3.55;3.22;;;15.90;99.90;;;;;;4856508;29;20463;-71
2021/07/21 05:27:36;;;;;;;2.70;2.50;;;15.90;99.90;;;;;;4840360;29;20411;-74
2021/07/21 05:30:03;;;;;;;2.63;2.42;;;15.90;99.90;;;;;;4841532;29;20422;-72
2021/07/21 05:32:49;;;;;;;2.63;2.42;;;15.90;99.90;;;;;;4866682;29;20433;-73
2021/07/21 05:35:16;;;;;;;2.30;2.17;;;16.00;99.90;;;;;;4856048;29;20490;-73
2021/07/21 05:37:51;;;;;;;4.20;3.10;;;16.10;99.90;;;;;;4872316;29;20411;-73
2021/07/21 05:40:23;;;;;;;5.50;2.80;;;16.10;99.90;;;;;;4849299;29;20405;-74
2021/07/21 05:43:00;;;;;;;2.75;2.55;;;16.20;99.90;;;;;;4859897;29;20405;-73
2021/07/21 05:45:32;;;;;;;2.58;2.38;;;16.30;99.90;;;;;;4855461;29;20462;-71
2021/07/21 05:47:57;;;;;;;3.28;2.97;;;16.50;99.90;;;;;;4871738;29;20832;-73
2021/07/21 05:50:23;;;;;;;2.80;2.60;;;16.60;99.90;;;;;;4852423;29;20391;-74
2021/07/21 05:52:55;;;;;;;2.78;2.58;;;16.80;99.90;;;;;;4849526;29;20481;-74
2021/07/21 05:55:23;;;;;;;3.13;2.90;;;16.90;99.90;;;;;;4862105;29;20405;-75
2021/07/21 05:57:49;;;;;;;3.20;2.90;;;17.10;99.90;;;;;;4825870;29;20410;-73
2021/07/21 06:00:18;;;;;;;3.38;3.03;;;17.10;99.90;;;;;;4846611;29;20421;-74
2021/07/21 06:02:53;;;;;;;8.25;3.25;;;17.30;99.90;;;;;;4851465;29;20418;-73
2021/07/21 06:05:30;;;;;;;3.15;2.80;;;17.50;99.90;;;;;;4866133;29;20411;-74
2021/07/21 06:08:19;;;;;;;3.35;2.97;;;17.50;99.90;;;;;;4865986;29;20399;-74
2021/07/21 06:10:59;;;;;;;3.40;3.10;;;17.70;99.90;;;;;;4861990;29;20467;-75
2021/07/21 06:13:25;;;;;;;3.28;2.97;;;18.00;99.90;;;;;;4844203;29;20860;-74
2021/07/21 06:15:53;;;;;;;3.40;3.10;;;18.20;99.90;;;;;;4844563;29;20423;-74
2021/07/21 06:18:19;;;;;;;3.45;3.15;;;18.50;99.90;;;;;;4864311;29;20436;-74
2021/07/21 06:20:48;;;;;;;3.83;3.47;;;18.80;99.90;;;;;;4854624;29;20469;-74
2021/07/21 06:23:14;;;;;;;4.72;3.70;;;18.90;99.90;;;;;;4815747;29;20432;-74
2021/07/21 06:25:46;;;;;;;3.40;3.10;;;19.10;99.90;;;;;;4843297;29;20395;-75
2021/07/21 06:28:19;;;;;;;3.58;3.28;;;19.20;99.90;;;;;;4857308;29;21118;-74
2021/07/21 06:30:45;;;;;;;2.80;2.60;;;19.40;99.90;;;;;;4843895;29;20483;-75
2021/07/21 06:33:18;;;;;;;3.30;3.00;;;19.40;99.90;;;;;;4868849;29;20423;-74
2021/07/21 06:35:46;;;;;;;3.80;3.40;;;19.50;99.90;;;;;;4838917;29;20434;-75
2021/07/21 06:38:12;;;;;;;3.20;3.00;;;19.40;99.90;;;;;;4863738;29;20419;-74
2021/07/21 06:40:41;;;;;;;3.63;3.33;;;19.40;99.90;;;;;;4851965;29;21149;-74
2021/07/21 06:43:08;;;;;;;2.78;2.58;;;19.30;99.90;;;;;;4848597;29;20490;-75
2021/07/21 06:45:54;;;;;;;3.65;3.15;;;19.30;99.90;;;;;;4868821;29;20427;-74
2021/07/21 06:48:20;;;;;;;3.97;3.00;;;19.40;99.90;;;;;;4843898;29;20421;-73
2021/07/21 06:50:46;;;;;;;3.15;2.85;;;19.40;99.90;;;;;;4839050;29;20455;-75
2021/07/21 06:53:12;;;;;;;2.85;2.60;;;19.60;99.90;;;;;;4854196;29;20414;-75
2021/07/21 06:55:57;;;;;;;4.38;3.30;;;19.60;99.90;;;;;;4863694;29;20421;-72
2021/07/21 06:58:25;;;;;;;2.70;2.50;;;19.40;99.90;;;;;;4870752;29;20413;-74
2021/07/21 07:00:55;;;;;;;4.25;3.05;;;19.50;99.90;;;;;;4842859;29;20425;-73
2021/07/21 07:03:20;;;;;;;3.97;3.08;;;19.70;99.90;;;;;;4870772;29;20467;-72
2021/07/21 07:06:04;;;;;;;3.20;2.90;;;19.80;99.90;;;;;;4860109;29;20476;-76
2021/07/21 07:08:49;;;;;;;3.15;2.95;;;20.00;99.90;;;;;;4839738;29;20429;-74
2021/07/21 07:11:17;;;;;;;3.03;2.77;;;20.00;99.90;;;;;;4872940;29;20395;-73
2021/07/21 07:13:43;;;;;;;3.05;2.75;;;20.10;99.90;;;;;;4868430;29;20440;-73
2021/07/21 07:16:09;;;;;;;3.17;2.87;;;20.20;99.90;;;;;;4864204;29;20426;-73
2021/07/21 07:18:35;;;;;;;6.78;2.95;;;20.30;99.90;;;;;;4843912;29;20443;-73
2021/07/21 07:21:01;;;;;;;3.45;3.15;;;20.30;99.90;;;;;;4862033;29;20419;-73
2021/07/21 07:23:27;;;;;;;3.78;3.17;;;20.20;99.90;;;;;;4840984;29;21134;-72
2021/07/21 07:25:54;;;;;;;2.67;2.47;;;20.10;99.90;;;;;;4859718;29;20464;-73
2021/07/21 07:28:19;;;;;;;4.05;3.20;;;20.20;99.90;;;;;;4863882;29;20422;-73
2021/07/21 07:30:45;;;;;;;4.87;3.33;;;20.10;99.90;;;;;;4837894;29;20954;-73
2021/07/21 07:33:11;;;;;;;3.75;2.97;;;20.20;99.90;;;;;;4847969;29;21522;-73
2021/07/21 07:35:39;;;;;;;3.40;3.10;;;20.30;99.90;;;;;;4871122;29;20517;-73
2021/07/21 07:38:05;;;;;;;3.38;3.08;;;20.40;99.90;;;;;;4869743;29;20401;-73
2021/07/21 07:40:30;;;;;;;3.20;2.90;;;20.40;99.90;;;;;;4860745;29;20440;-73
2021/07/21 07:42:56;;;;;;;3.38;2.92;;;20.50;99.90;;;;;;4847048;29;20413;-73
2021/07/21 07:45:22;;;;;;;3.80;2.90;;;20.60;99.90;;;;;;4834811;29;20407;-73
2021/07/21 07:47:47;;;;;;;3.72;3.28;;;20.70;99.90;;;;;;4862744;29;20411;-73
2021/07/21 07:50:13;;;;;;;3.20;2.90;;;20.70;99.90;;;;;;4865440;29;20397;-73
2021/07/21 07:52:39;;;;;;;2.87;2.67;;;20.60;99.90;;;;;;4863589;29;20422;-73
2021/07/21 07:55:06;;;;;;;3.35;3.05;;;20.80;99.90;;;;;;4848427;29;20956;-73
2021/07/21 07:57:31;;;;;;;3.50;3.15;;;20.70;99.90;;;;;;4873824;29;20445;-73
2021/07/21 07:59:57;;;;;;;3.03;2.83;;;20.80;99.90;;;;;;4883044;29;20448;-73
2021/07/21 08:02:23;;;;;;;3.07;2.87;;;20.90;99.90;;;;;;4867144;29;20441;-73
2021/07/21 08:04:48;;;;;;;3.28;3.00;;;21.00;99.90;;;;;;4846380;29;21042;-73
2021/07/21 08:07:15;;;;;;;3.20;3.00;;;21.00;99.90;;;;;;4873077;29;20509;-73
2021/07/21 08:09:41;;;;;;;2.97;2.73;;;21.20;99.90;;;;;;4875655;29;20485;-73
2021/07/21 08:12:07;;;;;;;3.08;2.78;;;21.10;99.90;;;;;;4851365;29;20409;-73
2021/07/21 08:14:32;;;;;;;3.22;2.65;;;21.10;99.90;;;;;;4863317;29;20411;-74
2021/07/21 08:16:58;;;;;;;3.90;3.10;;;21.30;99.90;;;;;;4861697;29;20427;-73
2021/07/21 08:19:24;;;;;;;3.17;2.87;;;21.40;99.90;;;;;;4870782;29;20415;-73
2021/07/21 08:21:50;;;;;;;3.00;2.80;;;21.40;99.90;;;;;;4871060;29;20482;-73
2021/07/21 08:24:16;;;;;;;4.37;3.30;;;21.40;99.90;;;;;;4872764;29;20407;-73
2021/07/21 08:26:42;;;;;;;3.50;3.17;;;21.50;99.90;;;;;;4843899;29;20447;-73
2021/07/21 08:29:08;;;;;;;3.40;3.10;;;21.60;99.90;;;;;;4847979;29;20439;-73
2021/07/21 08:31:36;;;;;;;3.45;3.15;;;21.70;99.90;;;;;;4859552;29;20421;-73
2021/07/21 08:34:03;;;;;;;3.63;3.25;;;21.80;99.90;;;;;;4859687;29;20418;-73
2021/07/21 08:36:29;;;;;;;3.47;3.17;;;22.00;99.90;;;;;;4843985;29;20416;-73
2021/07/21 08:38:55;;;;;;;3.40;2.85;;;22.10;99.90;;;;;;4847143;29;20423;-73
2021/07/21 08:41:21;;;;;;;3.28;2.92;;;22.40;99.90;;;;;;4847430;29;20425;-73
2021/07/21 08:43:47;;;;;;;3.60;3.30;;;22.60;99.90;;;;;;4833563;29;20402;-73
2021/07/21 08:46:12;;;;;;;3.92;3.50;;;22.60;99.90;;;;;;4852739;29;20951;-73
2021/07/21 08:48:38;;;;;;;3.30;3.00;;;22.50;99.90;;;;;;4855509;29;20407;-73
2021/07/21 08:51:04;;;;;;;3.35;3.05;;;22.60;99.90;;;;;;4857752;29;20409;-73
2021/07/21 08:53:30;;;;;;;3.30;3.00;;;22.90;99.90;;;;;;4867142;29;20435;-73
2021/07/21 08:55:55;;;;;;;3.40;3.05;;;23.20;99.90;;;;;;4843232;29;21107;-74
2021/07/21 08:58:21;;;;;;;3.30;3.00;;;23.50;99.90;;;;;;4854754;29;20408;-73
2021/07/21 09:00:51;;;;;;;3.92;2.85;;;23.70;99.90;;;;;;4837134;29;20456;-74
2021/07/21 09:03:17;;;;;;;2.92;2.70;;;24.10;99.90;;;;;;4856710;29;20427;-73
2021/07/21 09:05:43;;;;;;;3.92;2.83;;;24.30;99.90;;;;;;4868100;29;20424;-74
2021/07/21 09:08:10;;;;;;;3.47;3.17;;;24.30;99.90;;;;;;4854677;29;20764;-73
2021/07/21 09:10:36;;;;;;;2.80;2.60;;;24.40;99.90;;;;;;4872640;29;20404;-74
2021/07/21 09:13:01;;;;;;;3.03;2.83;;;24.50;99.90;;;;;;4862721;29;20774;-74
2021/07/21 09:15:27;;;;;;;3.78;3.38;;;24.60;99.90;;;;;;4837780;29;20416;-73
2021/07/21 09:18:01;;;;;;;3.17;2.87;;;24.50;99.90;;;;;;4872913;29;20642;-74
2021/07/21 09:20:27;;;;;;;3.65;2.97;;;24.70;99.90;;;;;;4855168;29;20835;-73
2021/07/21 09:22:53;;;;;;;3.07;2.77;;;24.80;99.90;;;;;;4844315;29;20420;-74
2021/07/21 09:25:23;;;;;;;2.92;2.72;;;25.00;99.90;;;;;;4870048;29;20454;-74
2021/07/21 09:27:51;;;;;;;5.20;2.72;;;25.00;99.90;;;;;;4875627;29;20777;-74
2021/07/21 09:30:19;;;;;;;3.13;2.85;;;25.30;99.90;;;;;;4841011;29;20671;-74
2021/07/21 09:33:04;;;;;;;2.88;2.67;;;25.30;99.90;;;;;;4837560;29;20418;-73
2021/07/21 09:35:35;;;;;;;3.20;2.90;;;25.30;99.90;;;;;;4860786;29;20462;-74
2021/07/21 09:38:05;;;;;;;2.75;2.55;;;25.50;99.90;;;;;;4862532;29;20415;-73
2021/07/21 09:40:30;;;;;;;2.50;2.30;;;25.30;99.90;;;;;;4846846;29;20880;-74
2021/07/21 09:42:56;;;;;;;2.97;2.70;;;25.70;99.90;;;;;;4853434;29;20413;-74
2021/07/21 09:45:22;;;;;;;2.93;2.60;;;25.60;99.90;;;;;;4868465;29;20405;-74
2021/07/21 09:47:49;;;;;;;2.70;2.50;;;25.70;99.90;;;;;;4859184;29;20438;-74
2021/07/21 09:50:25;;;;;;;2.85;2.65;;;25.70;99.90;;;;;;4872130;29;20750;-73
2021/07/21 09:53:04;;;;;;;2.30;2.20;;;25.60;99.90;;;;;;4865420;29;20447;-74
2021/07/21 09:55:31;;;;;;;3.35;2.67;;;25.80;99.90;;;;;;4867060;29;20487;-74
2021/07/21 09:58:10;;;;;;;2.75;2.55;;;25.90;99.90;;;;;;4844559;29;20427;-74
2021/07/21 10:00:39;;;;;;;2.47;2.28;;;25.50;99.90;;;;;;4862674;29;20488;-74
2021/07/21 10:03:12;;;;;;;3.15;2.58;;;25.30;99.90;;;;;;4850691;29;20916;-73
2021/07/21 10:05:54;;;;;;;2.40;2.22;;;25.30;99.90;;;;;;4880912;29;20396;-73
2021/07/21 10:08:47;;;;;;;2.27;2.07;;;25.50;99.90;;;;;;4858457;29;20437;-73
2021/07/21 10:11:27;;;;;;;2.50;2.30;;;25.50;99.90;;;;;;4880609;29;20413;-74
2021/07/21 10:14:02;;;;;;;2.67;2.47;;;25.70;99.90;;;;;;4866357;29;20416;-74
2021/07/21 10:16:31;;;;;;;3.38;2.53;;;25.90;99.90;;;;;;4882528;29;20446;-74
2021/07/21 10:19:13;;;;;;;3.42;2.75;;;25.70;99.90;;;;;;4855732;29;20414;-74
2021/07/21 10:21:41;;;;;;;2.17;2.03;;;25.70;99.90;;;;;;4847591;29;20422;-74
2021/07/21 10:24:07;;;;;;;2.55;2.35;;;25.80;99.90;;;;;;4840291;29;20493;-74
2021/07/21 10:26:33;;;;;;;3.42;2.50;;;25.70;99.90;;;;;;4854078;29;20408;-74
2021/07/21 10:28:59;;;;;;;2.97;2.63;;;25.80;99.90;;;;;;4849080;29;20552;-73
2021/07/21 10:31:25;;;;;;;3.08;2.80;;;25.90;99.90;;;;;;4855412;29;20418;-74
2021/07/21 10:33:51;;;;;;;2.60;2.40;;;26.20;99.90;;;;;;4870048;29;20414;-74
2021/07/21 10:36:18;;;;;;;3.65;2.63;;;26.30;99.90;;;;;;4851233;29;20455;-74
2021/07/21 10:38:44;;;;;;;2.87;2.67;;;26.00;99.90;;;;;;4839394;29;20478;-74
2021/07/21 10:41:10;;;;;;;2.23;2.13;;;26.10;99.90;;;;;;4853941;29;20922;-74
2021/07/21 10:43:36;;;;;;;2.25;2.10;;;26.40;99.90;;;;;;4849669;29;20476;-74
2021/07/21 10:46:04;;;;;;;2.67;2.47;;;26.60;99.90;;;;;;4861798;29;20415;-74
2021/07/21 10:48:47;;;;;;;2.20;2.00;;;26.60;99.90;;;;;;4840841;29;20498;-73
2021/07/21 10:54:42;;;;;;;2.13;2.03;;;26.70;99.90;;;;;;4842856;29;20955;-74
2021/07/21 11:00:06;;;;;;;2.10;2.00;;;26.10;99.90;;;;;;4876786;29;20438;-74
2021/07/21 11:02:32;;;;;;;2.65;2.28;;;26.00;99.90;;;;;;4857788;29;20414;-74
2021/07/21 11:04:58;;;;;;;2.20;2.00;;;25.80;99.90;;;;;;4848965;29;20407;-74
2021/07/21 11:07:49;;;;;;;2.75;1.95;;;26.00;99.90;;;;;;4855853;29;20410;-73
2021/07/21 11:10:15;;;;;;;2.13;2.03;;;26.00;99.90;;;;;;4881113;29;20426;-74
2021/07/21 11:12:49;;;;;;;2.30;2.13;;;25.90;99.90;;;;;;4868773;29;20822;-74
2021/07/21 11:15:54;;;;;;;2.00;1.90;;;25.90;99.90;;;;;;4853035;29;20889;-73
2021/07/21 11:18:23;;;;;;;2.10;1.90;;;26.10;99.90;;;;;;4790354;29;21009;-73
2021/07/21 11:20:55;;;;;;;2.23;2.07;;;26.20;99.90;;;;;;4811264;29;20406;-73
2021/07/21 11:23:40;;;;;;;2.22;2.03;;;26.30;99.90;;;;;;4829823;29;20501;-73
2021/07/21 11:26:39;;;;;;;1.98;1.80;;;26.90;99.90;;;;;;4860980;29;20420;-74
2021/07/21 11:29:33;;;;;;;1.88;1.77;;;27.60;99.90;;;;;;4864349;29;20487;-74
2021/07/21 11:32:00;;;;;;;1.95;1.55;;;28.20;99.90;;;;;;4859848;29;20419;-73
2021/07/21 11:34:29;;;;;;;1.80;1.70;;;28.60;99.90;;;;;;4865861;29;20434;-74
2021/07/21 11:36:58;;;;;;;1.70;1.60;;;28.60;98.60;;;;;;4866362;29;20424;-74
2021/07/21 11:39:38;;;;;;;1.95;1.85;;;28.60;95.90;;;;;;4873784;29;20422;-74
2021/07/21 11:42:04;;;;;;;1.93;1.83;;;28.50;98.50;;;;;;4844279;29;20426;-74
2021/07/21 11:44:34;;;;;;;2.58;1.90;;;28.50;98.00;;;;;;4872311;29;20421;-75
2021/07/21 11:47:01;;;;;;;1.73;1.63;;;28.50;97.50;;;;;;4865207;29;20421;-74
2021/07/21 11:49:28;;;;;;;2.10;2.00;;;28.30;95.30;;;;;;4875179;29;20416;-74
2021/07/21 11:52:04;;;;;;;1.80;1.70;;;28.20;95.80;;;;;;4859075;29;20411;-74
2021/07/21 11:54:35;;;;;;;3.67;1.80;;;27.50;94.90;;;;;;4849213;29;20854;-74
2021/07/21 11:57:02;;;;;;;1.60;1.50;;;27.40;97.60;;;;;;4866767;29;20421;-74
2021/07/21 11:59:29;;;;;;;1.48;1.38;;;27.50;96.60;;;;;;4872985;29;20974;-75
2021/07/21 12:02:02;;;;;;;1.65;1.55;;;27.40;94.70;;;;;;4862225;29;20440;-74
2021/07/21 12:04:29;;;;;;;1.65;1.55;;;27.10;96.80;;;;;;4859351;29;20429;-74
2021/07/21 12:06:55;;;;;;;1.23;1.20;;;26.60;94.70;;;;;;4865013;29;20456;-73
2021/07/21 12:09:30;;;;;;;1.67;1.58;;;26.30;96.30;;;;;;4862787;29;20439;-73
2021/07/21 12:12:00;;;;;;;1.70;1.60;;;26.20;96.00;;;;;;4858989;29;20430;-73
2021/07/21 12:14:26;;;;;;;1.50;1.40;;;26.30;97.00;;;;;;4861908;29;20474;-73
2021/07/21 12:16:53;;;;;;;2.20;1.40;;;26.20;97.00;;;;;;4851833;29;20426;-73
2021/07/21 12:19:25;;;;;;;1.33;1.23;;;26.20;96.60;;;;;;4864369;29;20409;-73
2021/07/21 12:22:02;;;;;;;0.95;0.93;;;26.20;97.40;;;;;;4852153;29;20418;-73
2021/07/21 12:24:45;;;;;;;1.52;1.42;;;26.20;98.30;;;;;;4858425;29;20418;-73
2021/07/21 12:27:12;;;;;;;1.98;1.40;;;26.30;98.00;;;;;;4831594;29;20415;-73
2021/07/21 12:29:38;;;;;;;1.52;1.42;;;26.40;97.50;;;;;;4852281;29;20904;-73
2021/07/21 12:32:13;;;;;;;2.50;1.70;;;26.40;97.20;;;;;;4875979;29;20977;-73
2021/07/21 12:34:40;;;;;;;1.30;1.20;;;26.30;97.40;;;;;;4842995;29;20413;-73
2021/07/21 12:37:07;;;;;;;1.40;1.30;;;26.20;99.20;;;;;;4840701;29;20462;-73
2021/07/21 12:39:32;;;;;;;1.33;1.23;;;26.30;96.20;;;;;;4846292;29;20415;-72
2021/07/21 12:42:15;;;;;;;1.40;1.30;;;26.40;97.40;;;;;;4854281;29;20708;-73
2021/07/21 12:44:46;;;;;;;1.60;1.50;;;26.60;96.10;;;;;;4869275;29;20407;-72
2021/07/21 12:47:27;;;;;;;1.92;1.42;;;26.60;97.80;;;;;;4874013;29;20970;-74
2021/07/21 12:49:57;;;;;;;1.60;1.50;;;26.60;98.30;;;;;;4871908;29;20445;-73
2021/07/21 12:52:24;;;;;;;1.60;1.50;;;26.30;97.40;;;;;;4875775;29;20439;-73
2021/07/21 12:54:57;;;;;;;2.00;1.80;;;26.60;97.70;;;;;;4842073;29;20794;-74
2021/07/21 12:57:45;;;;;;;1.70;1.50;;;26.50;95.60;;;;;;4861726;29;20995;-73
2021/07/21 13:00:23;;;;;;;1.83;1.60;;;26.30;96.40;;;;;;4867711;29;20404;-73
2021/07/21 13:03:03;;;;;;;1.45;1.35;;;26.10;96.30;;;;;;4885486;29;20462;-72
2021/07/21 13:05:32;;;;;;;1.60;1.50;;;26.40;97.80;;;;;;4860851;29;20427;-72
2021/07/21 13:08:08;;;;;;;1.67;1.58;;;26.40;98.30;;;;;;4855242;29;20422;-71
2021/07/21 13:10:36;;;;;;;1.45;1.35;;;26.50;97.00;;;;;;4863194;29;20422;-72
2021/07/21 13:13:01;;;;;;;1.73;1.63;;;26.40;97.10;;;;;;4843354;29;20417;-72
2021/07/21 13:15:29;;;;;;;1.77;1.67;;;26.30;97.30;;;;;;4845249;29;20419;-72